Time;durP1;ratioP1;P1;durP2;ratioP2;P2;SDS_P1;SDS_P2;PMS_P1;PMS_P2;Temp;Humidity;BMP_temperature;BMP_pressure;BME280_temperature;BME280_humidity;BME280_pressure;Samples;Min_cycle;Max_cycle;Signal;HPM_P1;HPM_P2
2021/04/01 06:14:12;;;;;;;32.58;6.32;;;8.40;99.90;;;;;;3620876;39;20377;-73
2021/04/01 06:16:41;;;;;;;34.42;5.97;;;8.20;99.90;;;;;;3618721;39;20187;-71
2021/04/01 06:19:17;;;;;;;35.47;5.53;;;8.10;99.90;;;;;;3616816;39;20094;-72
2021/04/01 06:21:48;;;;;;;32.10;6.03;;;8.20;99.90;;;;;;3618438;39;20189;-72
2021/04/01 06:24:22;;;;;;;39.33;5.40;;;8.20;99.90;;;;;;3614075;39;20079;-73
2021/04/01 06:26:56;;;;;;;31.63;6.03;;;8.30;99.90;;;;;;3619282;39;20102;-72
2021/04/01 06:29:25;;;;;;;33.58;5.35;;;8.40;99.90;;;;;;3616724;39;20110;-72
2021/04/01 06:31:53;;;;;;;36.55;6.10;;;8.50;99.90;;;;;;3617668;39;20074;-71
2021/04/01 06:34:42;;;;;;;27.35;4.43;;;8.50;99.90;;;;;;3616121;39;20153;-70
2021/04/01 06:40:20;;;;;;;33.33;5.72;;;8.80;99.90;;;;;;3594177;39;20360;-72
2021/04/01 06:42:52;;;;;;;32.35;6.10;;;8.70;99.90;;;;;;3610578;39;20094;-71
2021/04/01 06:45:24;;;;;;;30.38;5.35;;;8.80;99.90;;;;;;3614048;39;20170;-70
2021/04/01 06:47:54;;;;;;;35.30;5.18;;;8.90;99.90;;;;;;3615963;39;20158;-71
2021/04/01 06:50:28;;;;;;;34.15;4.97;;;9.00;99.90;;;;;;3609984;39;20071;-71
2021/04/01 06:53:07;;;;;;;37.95;6.28;;;8.90;99.90;;;;;;3617608;39;20083;-69
2021/04/01 06:55:44;;;;;;;32.22;5.75;;;8.90;99.90;;;;;;3611378;39;20098;-71
2021/04/01 07:00:59;;;;;;;40.80;5.32;;;9.10;99.90;;;;;;3618728;39;20099;-71
2021/04/01 07:03:49;;;;;;;36.92;5.72;;;9.20;99.90;;;;;;3617497;39;20334;-70
2021/04/01 07:06:25;;;;;;;35.92;6.45;;;9.30;99.90;;;;;;3616512;39;20099;-69
2021/04/01 07:09:04;;;;;;;33.42;6.53;;;9.30;99.90;;;;;;3617915;39;20533;-71
2021/04/01 07:14:13;;;;;;;30.05;5.75;;;9.30;99.90;;;;;;3618752;39;20380;-71
2021/04/01 07:19:25;;;;;;;22.25;4.90;;;9.30;99.90;;;;;;3618433;39;20228;-70
2021/04/01 07:22:28;;;;;;;33.15;5.90;;;9.50;99.90;;;;;;3617534;39;20162;-71
2021/04/01 07:44:59;;;;;;;24.40;4.13;;;9.40;99.90;;;;;;3610483;39;20094;-70
2021/04/01 07:47:36;;;;;;;22.38;4.22;;;9.50;99.90;;;;;;3610566;39;20392;-70
2021/04/01 07:50:18;;;;;;;24.42;4.78;;;9.90;99.90;;;;;;3608612;39;20412;-71
2021/04/01 07:52:56;;;;;;;25.02;4.53;;;10.00;99.90;;;;;;3610650;39;20524;-71
2021/04/01 07:55:45;;;;;;;16.58;3.40;;;10.10;99.90;;;;;;3610565;39;20067;-71
2021/04/01 08:00:58;;;;;;;19.88;3.42;;;10.00;99.90;;;;;;3611508;39;20198;-70
2021/04/01 08:06:22;;;;;;;26.98;3.60;;;9.90;99.90;;;;;;3608110;39;20083;-72
2021/04/01 08:08:51;;;;;;;27.02;5.03;;;10.00;99.90;;;;;;3610839;39;20396;-73
2021/04/01 08:11:31;;;;;;;24.17;3.70;;;10.00;99.90;;;;;;3606718;39;20059;-72
2021/04/01 08:14:10;;;;;;;24.88;5.20;;;10.20;99.90;;;;;;3613592;39;20060;-72
2021/04/01 08:16:40;;;;;;;25.95;3.95;;;10.00;99.90;;;;;;3607233;39;20079;-72
2021/04/01 08:19:11;;;;;;;27.48;3.83;;;10.30;99.90;;;;;;3610389;39;20378;-71
2021/04/01 08:21:40;;;;;;;22.58;4.60;;;11.00;99.90;;;;;;3610041;39;20096;-70
2021/04/01 08:24:10;;;;;;;18.10;3.50;;;11.10;99.90;;;;;;3613335;39;20562;-72
2021/04/01 08:26:47;;;;;;;14.75;2.72;;;11.40;99.90;;;;;;3609389;39;20199;-71
2021/04/01 08:32:01;;;;;;;18.25;3.30;;;11.50;99.90;;;;;;3611611;39;20071;-70
2021/04/01 08:36:53;;;;;;;16.35;2.95;;;11.10;99.90;;;;;;3607166;39;20071;-69
2021/04/01 08:39:22;;;;;;;20.95;3.25;;;10.90;99.90;;;;;;3610890;39;20082;-71
2021/04/01 08:42:06;;;;;;;20.88;3.38;;;11.20;99.90;;;;;;3608498;39;20083;-71
2021/04/01 08:44:51;;;;;;;17.55;3.85;;;11.90;99.90;;;;;;3609595;39;20063;-71
2021/04/01 08:47:22;;;;;;;18.00;4.55;;;11.40;99.90;;;;;;3610666;39;20070;-71
2021/04/01 08:50:17;;;;;;;20.20;3.60;;;11.00;99.90;;;;;;3611115;39;20307;-71
2021/04/01 08:53:21;;;;;;;22.52;3.90;;;10.90;99.90;;;;;;3608009;39;20146;-72
2021/04/01 08:56:08;;;;;;;23.50;4.75;;;10.70;99.90;;;;;;3610212;39;20080;-67
2021/04/01 08:58:42;;;;;;;31.23;5.72;;;10.80;99.90;;;;;;3607244;39;20086;-69
2021/04/01 09:01:14;;;;;;;21.58;4.05;;;11.30;99.90;;;;;;3607454;39;20157;-70
2021/04/01 09:03:45;;;;;;;19.58;4.53;;;10.80;99.90;;;;;;3609130;39;20384;-70
2021/04/01 09:06:16;;;;;;;25.52;4.28;;;11.50;99.90;;;;;;3608872;39;20086;-71
2021/04/01 09:09:18;;;;;;;29.35;4.82;;;11.80;99.90;;;;;;3611276;39;20735;-70
2021/04/01 09:11:51;;;;;;;20.23;3.80;;;11.30;99.90;;;;;;3606548;39;20075;-71
2021/04/01 09:14:30;;;;;;;21.15;4.07;;;11.00;99.90;;;;;;3606279;39;20060;-70
2021/04/01 09:17:10;;;;;;;19.42;3.75;;;11.50;99.90;;;;;;3609600;39;20198;-71
2021/04/01 09:19:37;;;;;;;17.33;3.75;;;11.90;99.90;;;;;;3604679;39;20293;-71
2021/04/01 09:22:14;;;;;;;18.35;3.78;;;12.30;99.90;;;;;;3607828;39;20347;-70
2021/04/01 09:24:41;;;;;;;17.90;3.53;;;13.30;99.90;;;;;;3609865;39;20078;-71
2021/04/01 09:27:11;;;;;;;23.33;4.88;;;13.20;99.90;;;;;;3611203;39;20150;-70
2021/04/01 09:29:39;;;;;;;20.02;4.75;;;13.00;99.90;;;;;;3608657;39;20170;-69
2021/04/01 09:32:05;;;;;;;23.70;5.40;;;12.60;99.90;;;;;;3610984;39;20080;-70
2021/04/01 09:34:32;;;;;;;23.23;3.83;;;12.70;99.90;;;;;;3611283;39;20630;-71
2021/04/01 09:37:11;;;;;;;21.83;4.38;;;13.00;99.90;;;;;;3610138;39;20095;-69
2021/04/01 09:39:37;;;;;;;18.42;3.83;;;12.20;99.90;;;;;;3610230;39;20071;-70
2021/04/01 09:42:11;;;;;;;22.67;3.80;;;12.40;99.90;;;;;;3609740;39;20068;-70
2021/04/01 09:44:49;;;;;;;16.90;3.55;;;13.10;99.90;;;;;;3610803;39;20071;-71
2021/04/01 09:47:24;;;;;;;20.02;3.95;;;14.00;99.90;;;;;;3609466;39;20166;-71
2021/04/01 09:50:07;;;;;;;20.73;4.32;;;14.00;99.90;;;;;;3610960;39;20245;-70
2021/04/01 09:52:33;;;;;;;;;;;13.10;99.90;;;;;;3609217;39;20204;-71
2021/04/01 09:55:11;;;;;;;25.70;4.72;;;12.50;99.90;;;;;;3609140;39;19924;-70
2021/04/01 09:57:54;;;;;;;18.60;3.58;;;13.30;99.90;;;;;;3608776;39;20086;-70
2021/04/01 10:03:12;;;;;;;13.00;3.50;;;14.40;99.90;;;;;;3610112;39;20157;-69
2021/04/01 10:05:40;;;;;;;17.13;4.30;;;14.50;99.90;;;;;;3608201;39;20094;-71
2021/04/01 10:08:11;;;;;;;16.25;3.58;;;14.00;99.90;;;;;;3609577;39;20069;-69
2021/04/01 10:10:41;;;;;;;17.58;3.70;;;13.20;99.90;;;;;;3607454;39;20091;-71
2021/04/01 10:13:18;;;;;;;19.80;3.80;;;12.60;99.90;;;;;;3608740;39;20300;-71
2021/04/01 10:15:45;;;;;;;20.33;4.15;;;13.50;99.90;;;;;;3609713;39;20359;-70
2021/04/01 10:18:13;;;;;;;21.85;4.72;;;13.50;99.90;;;;;;3608648;39;20172;-72
2021/04/01 10:20:39;;;;;;;19.17;4.05;;;13.60;99.90;;;;;;3609474;39;20075;-70
2021/04/01 10:23:06;;;;;;;15.73;3.58;;;14.40;99.90;;;;;;3610016;39;20163;-70
2021/04/01 10:25:37;;;;;;;21.50;5.13;;;14.30;99.90;;;;;;3610102;39;20431;-69
2021/04/01 10:28:18;;;;;;;19.92;3.55;;;14.30;99.90;;;;;;3599295;39;20170;-70
2021/04/01 10:30:45;;;;;;;20.13;4.80;;;14.40;99.90;;;;;;3599143;39;20249;-70
2021/04/01 10:33:32;;;;;;;17.45;3.50;;;13.90;99.90;;;;;;3606697;39;20171;-70
2021/04/01 10:36:02;;;;;;;20.00;4.30;;;13.30;99.90;;;;;;3610376;39;20071;-71
2021/04/01 10:38:28;;;;;;;21.90;4.32;;;14.50;99.90;;;;;;3610542;39;20067;-70
2021/04/01 10:40:56;;;;;;;21.23;4.15;;;14.00;99.90;;;;;;3610080;39;20141;-69
2021/04/01 10:43:31;;;;;;;21.90;4.10;;;14.20;99.90;;;;;;3610233;39;20158;-71
2021/04/01 10:46:00;;;;;;;23.30;4.75;;;15.00;99.90;;;;;;3609648;39;20413;-70
2021/04/01 10:48:28;;;;;;;19.55;3.97;;;14.70;99.90;;;;;;3610408;39;20086;-70
2021/04/01 10:51:00;;;;;;;20.70;5.40;;;15.20;99.90;;;;;;3609583;39;20532;-69
2021/04/01 10:53:26;;;;;;;17.02;4.45;;;14.90;99.90;;;;;;3609626;39;20087;-69
2021/04/01 10:55:59;;;;;;;21.55;3.80;;;14.60;99.90;;;;;;3610108;39;20287;-70
2021/04/01 10:58:25;;;;;;;20.35;4.20;;;15.10;99.90;;;;;;3609481;39;20079;-70
2021/04/01 11:00:56;;;;;;;18.60;3.88;;;14.70;99.90;;;;;;3612770;39;20278;-70
2021/04/01 11:03:28;;;;;;;23.48;4.45;;;14.40;99.90;;;;;;3611836;39;20168;-72
2021/04/01 11:05:55;;;;;;;23.63;4.90;;;13.70;99.90;;;;;;3611365;39;20184;-71
2021/04/01 11:08:23;;;;;;;19.77;4.55;;;14.10;99.90;;;;;;3612447;39;20154;-69
2021/04/01 11:11:01;;;;;;;21.33;5.13;;;13.30;99.90;;;;;;3611935;39;20090;-71
2021/04/01 11:13:35;;;;;;;18.23;3.80;;;13.30;99.90;;;;;;3604215;39;20421;-70
2021/04/01 11:16:06;;;;;;;20.48;4.13;;;13.30;99.90;;;;;;3611874;39;20079;-70
2021/04/01 11:18:35;;;;;;;20.30;4.07;;;13.50;99.90;;;;;;3611331;39;20086;-70
2021/04/01 11:21:05;;;;;;;18.02;4.20;;;13.90;99.90;;;;;;3611178;39;20090;-70
2021/04/01 11:23:31;;;;;;;25.40;5.35;;;14.00;99.90;;;;;;3612053;39;20098;-71
2021/04/01 11:26:01;;;;;;;16.65;3.97;;;14.40;99.90;;;;;;3610014;39;20082;-70
2021/04/01 11:28:40;;;;;;;19.83;4.57;;;14.30;99.90;;;;;;3612232;39;20083;-70
2021/04/01 11:31:09;;;;;;;24.10;5.60;;;13.90;99.90;;;;;;3612017;39;20087;-71
2021/04/01 11:33:38;;;;;;;25.45;4.85;;;12.50;99.90;;;;;;3599658;39;20079;-71
2021/04/01 11:36:18;;;;;;;19.35;4.22;;;12.50;99.90;;;;;;3601709;39;20079;-71
2021/04/01 11:38:53;;;;;;;17.42;3.95;;;13.40;99.90;;;;;;3611471;39;20403;-71
2021/04/01 11:41:21;;;;;;;20.92;3.50;;;14.20;99.90;;;;;;3609843;39;20170;-71
2021/04/01 11:43:52;;;;;;;19.30;3.97;;;14.10;99.90;;;;;;3612407;39;20161;-70
2021/04/01 11:46:31;;;;;;;20.33;4.72;;;14.00;99.90;;;;;;3610850;39;20068;-70
2021/04/01 11:48:58;;;;;;;18.92;3.63;;;14.10;99.90;;;;;;3601099;39;20064;-70
2021/04/01 11:51:29;;;;;;;18.60;3.95;;;13.40;99.90;;;;;;3611744;39;20146;-70
2021/04/01 11:53:55;;;;;;;19.45;3.75;;;13.70;99.90;;;;;;3609873;39;20071;-71
2021/04/01 11:56:23;;;;;;;19.77;3.70;;;13.80;99.90;;;;;;3612169;39;20079;-71
2021/04/01 11:58:49;;;;;;;18.63;3.45;;;13.00;99.90;;;;;;3611085;39;20086;-70
2021/04/01 12:01:32;;;;;;;17.73;3.53;;;12.90;99.90;;;;;;3611606;39;20396;-70
2021/04/01 12:04:10;;;;;;;17.88;4.15;;;12.70;99.90;;;;;;3611925;39;20176;-69
2021/04/01 12:06:37;;;;;;;22.98;4.18;;;13.20;99.90;;;;;;3610450;39;20101;-70
2021/04/01 12:09:03;;;;;;;21.38;4.95;;;13.50;99.90;;;;;;3611000;39;20179;-71
2021/04/01 12:11:42;;;;;;;22.92;4.50;;;14.30;99.90;;;;;;3610733;39;20075;-70
2021/04/01 12:14:13;;;;;;;20.42;4.38;;;14.00;99.90;;;;;;3611764;39;20095;-71
2021/04/01 12:16:39;;;;;;;19.30;3.33;;;13.10;99.90;;;;;;3609865;39;20313;-70
2021/04/01 12:19:06;;;;;;;22.23;5.43;;;13.10;99.90;;;;;;3612000;39;20068;-70
2021/04/01 12:21:32;;;;;;;16.85;3.92;;;13.60;99.90;;;;;;3610687;39;20062;-70
2021/04/01 12:24:05;;;;;;;19.33;3.17;;;13.20;99.90;;;;;;3611537;39;20094;-71
2021/04/01 12:26:50;;;;;;;;;;;14.00;99.90;;;;;;3609277;39;20281;-71
2021/04/01 12:29:16;;;;;;;22.10;3.83;;;13.10;99.90;;;;;;3609855;39;20194;-70
2021/04/01 12:31:47;;;;;;;20.15;3.92;;;14.30;99.90;;;;;;3609170;39;20068;-70
2021/04/01 12:34:28;;;;;;;19.75;4.20;;;13.90;99.90;;;;;;3610570;39;20083;-70
2021/04/01 12:36:56;;;;;;;19.58;4.30;;;13.60;99.90;;;;;;3611580;39;20055;-69
2021/04/01 12:39:33;;;;;;;17.13;4.40;;;13.30;99.90;;;;;;3610306;39;20068;-71
2021/04/01 12:41:58;;;;;;;16.80;4.00;;;14.20;99.90;;;;;;3608823;39;20064;-70
2021/04/01 12:44:53;;;;;;;21.20;4.00;;;14.20;99.90;;;;;;3610976;39;20090;-70
2021/04/01 12:47:23;;;;;;;17.83;3.78;;;14.10;99.90;;;;;;3599787;39;20195;-70
2021/04/01 12:49:49;;;;;;;18.85;3.28;;;14.20;99.90;;;;;;3609127;39;20080;-69
2021/04/01 12:52:15;;;;;;;19.73;4.15;;;13.30;99.90;;;;;;3609972;39;20095;-70
2021/04/01 12:54:45;;;;;;;19.33;5.45;;;13.30;99.90;;;;;;3610094;39;20260;-70
2021/04/01 12:57:16;;;;;;;20.38;3.50;;;12.90;99.90;;;;;;3609691;39;20067;-70
2021/04/01 12:59:51;;;;;;;21.52;5.55;;;13.70;99.90;;;;;;3608971;39;20079;-70
2021/04/01 13:02:19;;;;;;;11.75;3.33;;;13.30;99.90;;;;;;3609008;39;20079;-71
2021/04/01 13:04:56;;;;;;;20.73;7.22;;;13.30;99.90;;;;;;3611029;39;20179;-70
2021/04/01 13:07:28;;;;;;;14.23;3.65;;;13.40;99.90;;;;;;3604753;39;20158;-71
2021/04/01 13:10:39;;;;;;;16.10;3.53;;;13.20;99.90;;;;;;3608999;39;20095;-70
2021/04/01 13:12:45;;;;;;;18.20;3.55;;;12.50;99.90;;;;;;3605655;39;20147;-71
2021/04/01 13:15:11;;;;;;;17.77;4.35;;;12.70;99.90;;;;;;3611105;39;20154;-72
2021/04/01 13:17:36;;;;;;;13.40;3.70;;;13.50;99.90;;;;;;3609975;39;20063;-72
2021/04/01 13:20:03;;;;;;;12.88;3.05;;;14.00;99.90;;;;;;3611216;39;20071;-71
2021/04/01 13:22:33;;;;;;;15.02;3.13;;;13.70;99.90;;;;;;3609260;39;20170;-71
2021/04/01 13:27:27;;;;;;;13.32;3.80;;;12.50;99.90;;;;;;3610779;39;20126;-71
2021/04/01 13:30:00;;;;;;;12.25;2.97;;;12.30;99.90;;;;;;3609991;39;20090;-71
2021/04/01 13:35:44;;;;;;;16.30;4.60;;;11.00;99.90;;;;;;3587794;40;20006;-70
2021/04/01 13:40:49;;;;;;;31.38;7.85;;;11.00;99.90;;;;;;3610291;39;20091;-70
2021/04/01 13:43:21;;;;;;;17.80;6.13;;;11.60;99.90;;;;;;3610978;39;20090;-71
2021/04/01 13:45:47;;;;;;;9.88;2.92;;;10.80;99.90;;;;;;3610436;39;20407;-70
2021/04/01 13:48:15;;;;;;;11.27;2.58;;;10.90;99.90;;;;;;3610949;39;20082;-70
2021/04/01 13:50:49;;;;;;;10.05;3.00;;;10.90;99.90;;;;;;3604223;39;20076;-70
2021/04/01 13:56:12;;;;;;;9.88;2.40;;;11.30;99.90;;;;;;3610263;39;20169;-69
2021/04/01 14:09:54;;;;;;;15.15;3.53;;;11.60;99.90;;;;;;3605508;39;20378;-70
2021/04/01 14:12:20;;;;;;;15.65;3.33;;;11.50;99.90;;;;;;3610012;39;20074;-69
2021/04/01 14:14:45;;;;;;;8.02;1.98;;;11.60;99.90;;;;;;3610636;39;20101;-72
2021/04/01 14:17:14;;;;;;;9.48;2.00;;;11.10;99.90;;;;;;3610382;39;20098;-71
2021/04/01 14:19:41;;;;;;;7.82;2.65;;;11.00;99.90;;;;;;3610460;39;20067;-72
2021/04/01 14:22:07;;;;;;;10.77;2.50;;;12.00;99.90;;;;;;3610147;39;20122;-71
2021/04/01 14:24:46;;;;;;;12.85;2.60;;;12.00;99.90;;;;;;3609744;39;20388;-71
2021/04/01 14:29:43;;;;;;;9.88;2.30;;;11.20;99.90;;;;;;3609608;39;20090;-72
2021/04/01 14:32:11;;;;;;;15.38;2.60;;;11.20;99.90;;;;;;3610403;39;20193;-71
2021/04/01 14:34:39;;;;;;;9.52;2.33;;;11.50;99.90;;;;;;3611809;39;20097;-71
2021/04/01 14:37:07;;;;;;;11.95;2.28;;;11.30;99.90;;;;;;3609535;39;20113;-71
2021/04/01 14:39:33;;;;;;;6.78;1.88;;;11.40;99.90;;;;;;3611546;39;20341;-69
2021/04/01 14:42:03;;;;;;;11.00;2.47;;;11.70;99.90;;;;;;3611588;39;20075;-70
2021/04/01 14:44:31;;;;;;;13.77;2.78;;;11.60;99.90;;;;;;3612061;39;20083;-70
2021/04/01 14:46:57;;;;;;;11.55;3.10;;;11.80;99.90;;;;;;3611490;39;20079;-71
2021/04/01 14:49:22;;;;;;;7.95;2.70;;;11.40;99.90;;;;;;3612413;39;20059;-70
2021/04/01 14:51:49;;;;;;;8.77;2.30;;;11.30;99.90;;;;;;3611504;39;20144;-70
2021/04/01 14:54:19;;;;;;;11.25;2.28;;;11.20;99.90;;;;;;3612659;39;20087;-71
2021/04/01 14:56:50;;;;;;;12.32;2.10;;;11.00;99.90;;;;;;3611655;39;20476;-71
2021/04/01 14:59:21;;;;;;;7.82;1.60;;;11.60;99.90;;;;;;3612869;39;20477;-70
2021/04/01 15:01:49;;;;;;;9.73;2.60;;;11.50;99.90;;;;;;3611775;39;20060;-69
2021/04/01 15:04:15;;;;;;;10.20;2.10;;;11.60;99.90;;;;;;3611045;39;20192;-70
2021/04/01 15:06:52;;;;;;;12.52;2.75;;;11.80;99.90;;;;;;3609788;39;20078;-70
2021/04/01 15:09:20;;;;;;;9.68;2.25;;;12.30;99.90;;;;;;3611690;39;20075;-70
2021/04/01 15:11:46;;;;;;;10.30;3.15;;;12.10;99.90;;;;;;3600641;39;20103;-70
2021/04/01 15:14:13;;;;;;;13.10;2.75;;;12.60;99.90;;;;;;3611011;39;20071;-69
2021/04/01 15:16:39;;;;;;;16.02;3.28;;;12.50;99.90;;;;;;3612237;39;20060;-70
2021/04/01 15:19:06;;;;;;;17.20;3.25;;;12.20;99.90;;;;;;3612204;39;20071;-70
2021/04/01 15:21:32;;;;;;;7.85;2.15;;;12.30;99.90;;;;;;3608273;39;20144;-70
2021/04/01 15:23:58;;;;;;;10.57;2.72;;;11.80;99.90;;;;;;3610752;39;20420;-70
2021/04/01 15:26:24;;;;;;;20.77;8.63;;;12.70;99.90;;;;;;3611783;39;20086;-70
2021/04/01 15:28:50;;;;;;;23.40;4.15;;;11.80;99.90;;;;;;3611059;39;20063;-69
2021/04/01 15:31:17;;;;;;;12.18;2.95;;;11.50;99.90;;;;;;3604728;39;20075;-70
2021/04/01 15:33:43;;;;;;;13.55;3.00;;;11.10;99.90;;;;;;3609546;39;20067;-70
2021/04/01 15:36:09;;;;;;;7.85;2.40;;;11.20;99.90;;;;;;3611921;39;20085;-69
2021/04/01 15:38:35;;;;;;;11.73;2.60;;;11.20;99.90;;;;;;3610988;39;20063;-70
2021/04/01 15:41:00;;;;;;;12.00;3.15;;;11.50;99.90;;;;;;3612257;39;20059;-70
2021/04/01 15:43:27;;;;;;;9.52;2.38;;;11.40;99.90;;;;;;3611102;39;20081;-71
2021/04/01 15:45:54;;;;;;;8.98;2.13;;;10.80;99.90;;;;;;3611440;39;20164;-70
2021/04/01 15:48:21;;;;;;;9.20;1.95;;;10.40;99.90;;;;;;3610977;39;20400;-70
2021/04/01 15:50:47;;;;;;;8.93;2.40;;;10.40;99.90;;;;;;3611905;39;20180;-71
2021/04/01 15:53:16;;;;;;;13.90;1.98;;;10.60;99.90;;;;;;3613117;39;20087;-70
2021/04/01 15:55:41;;;;;;;5.28;1.63;;;10.80;99.90;;;;;;3613996;39;20086;-71
2021/04/01 15:58:07;;;;;;;9.25;2.10;;;11.10;99.90;;;;;;3611431;39;20384;-70
2021/04/01 16:00:32;;;;;;;13.82;2.63;;;11.40;99.90;;;;;;3611909;39;20240;-70
2021/04/01 16:02:58;;;;;;;15.15;2.67;;;11.00;99.90;;;;;;3610474;39;20079;-71
2021/04/01 16:05:24;;;;;;;6.75;2.20;;;11.00;99.90;;;;;;3612763;39;20067;-72
2021/04/01 16:07:51;;;;;;;11.25;2.40;;;11.00;99.90;;;;;;3605557;39;20139;-70
2021/04/01 16:10:17;;;;;;;14.95;3.42;;;10.80;99.90;;;;;;3611087;39;20087;-71
2021/04/01 16:12:43;;;;;;;13.45;2.28;;;10.60;99.90;;;;;;3610454;39;20086;-71
2021/04/01 16:15:09;;;;;;;8.13;2.22;;;10.10;99.90;;;;;;3612035;39;20423;-70
2021/04/01 16:17:35;;;;;;;13.50;2.60;;;10.00;99.90;;;;;;3610636;39;20072;-70
2021/04/01 16:20:01;;;;;;;16.48;3.13;;;10.10;99.90;;;;;;3611928;39;20556;-70
2021/04/01 16:22:26;;;;;;;13.55;2.72;;;9.80;99.90;;;;;;3610723;39;20083;-70
2021/04/01 16:24:52;;;;;;;12.05;2.60;;;10.30;99.90;;;;;;3611003;39;20106;-70
2021/04/01 16:27:17;;;;;;;14.82;2.97;;;10.20;99.90;;;;;;3611542;39;20179;-69
2021/04/01 16:29:43;;;;;;;12.77;2.70;;;10.40;99.90;;;;;;3611745;39;20404;-70
2021/04/01 16:32:09;;;;;;;12.10;2.70;;;10.40;99.90;;;;;;3610927;39;20103;-70
2021/04/01 16:34:35;;;;;;;11.95;2.65;;;10.60;99.90;;;;;;3611998;39;20090;-70
2021/04/01 16:37:02;;;;;;;14.13;2.60;;;10.30;99.90;;;;;;3605071;39;20433;-71
2021/04/01 16:39:28;;;;;;;13.70;2.75;;;10.00;99.90;;;;;;3611166;39;20436;-71
2021/04/01 16:41:55;;;;;;;9.88;2.45;;;10.10;99.90;;;;;;3610301;39;20067;-71
2021/04/01 16:44:23;;;;;;;9.80;2.55;;;10.50;99.90;;;;;;3610142;39;20075;-72
2021/04/01 16:46:49;;;;;;;13.60;2.85;;;10.30;99.90;;;;;;3611099;39;20083;-70
2021/04/01 16:49:15;;;;;;;13.15;2.42;;;10.30;99.90;;;;;;3609689;39;20075;-71
2021/04/01 16:51:44;;;;;;;17.90;3.38;;;10.10;99.90;;;;;;3610522;39;20451;-70
2021/04/01 16:54:18;;;;;;;11.23;2.35;;;10.40;99.90;;;;;;3609577;39;20060;-70
2021/04/01 16:56:54;;;;;;;9.57;2.83;;;10.50;99.90;;;;;;3610175;39;20094;-71
2021/04/01 16:59:24;;;;;;;10.23;2.65;;;10.00;99.90;;;;;;3610686;39;20160;-70
2021/04/01 17:01:51;;;;;;;15.10;2.97;;;10.00;99.90;;;;;;3611635;39;20071;-71
2021/04/01 17:04:18;;;;;;;17.38;2.75;;;9.70;99.90;;;;;;3610096;39;20404;-70
2021/04/01 17:06:48;;;;;;;16.48;2.67;;;9.60;99.90;;;;;;3611504;39;20366;-71
2021/04/01 17:09:14;;;;;;;10.93;2.35;;;9.60;99.90;;;;;;3609919;39;20098;-71
2021/04/01 17:11:40;;;;;;;14.05;2.53;;;9.60;99.90;;;;;;3611772;39;20091;-70
2021/04/01 17:14:06;;;;;;;8.68;2.00;;;9.60;99.90;;;;;;3605839;39;20089;-71
2021/04/01 17:16:31;;;;;;;9.82;1.95;;;9.40;99.90;;;;;;3609322;39;20155;-70
2021/04/01 17:18:58;;;;;;;11.02;2.60;;;9.30;99.90;;;;;;3607939;39;20110;-70
2021/04/01 17:21:24;;;;;;;7.97;1.98;;;9.30;99.90;;;;;;3608718;39;20180;-70
2021/04/01 17:23:50;;;;;;;9.07;2.75;;;9.20;99.90;;;;;;3604918;39;20075;-69
2021/04/01 17:26:17;;;;;;;15.23;3.30;;;9.20;99.90;;;;;;3611125;39;20076;-71
2021/04/01 17:28:43;;;;;;;8.65;2.28;;;9.30;99.90;;;;;;3611133;39;20087;-72
2021/04/01 17:31:10;;;;;;;13.00;2.33;;;9.10;99.90;;;;;;3611872;39;20150;-69
2021/04/01 17:33:36;;;;;;;12.98;2.78;;;9.00;99.90;;;;;;3602908;39;20219;-71
2021/04/01 17:36:03;;;;;;;11.07;2.20;;;9.00;99.90;;;;;;3608865;39;20412;-70
2021/04/01 17:38:28;;;;;;;14.00;3.53;;;8.60;99.90;;;;;;3611132;39;20156;-70
2021/04/01 17:40:54;;;;;;;12.25;2.90;;;8.60;99.90;;;;;;3613128;39;20078;-70
2021/04/01 17:43:19;;;;;;;11.85;2.38;;;8.70;99.90;;;;;;3610592;39;20089;-70
2021/04/01 17:45:45;;;;;;;12.70;2.72;;;8.80;99.90;;;;;;3609615;39;20158;-71
2021/04/01 17:48:11;;;;;;;13.32;3.65;;;8.70;99.90;;;;;;3610510;39;20782;-70
2021/04/01 17:50:36;;;;;;;12.23;2.60;;;8.60;99.90;;;;;;3610734;39;20093;-70
2021/04/01 17:53:03;;;;;;;11.55;2.22;;;8.50;99.90;;;;;;3604086;39;20393;-71
2021/04/01 17:55:56;;;;;;;11.10;3.05;;;8.60;99.90;;;;;;3605045;39;20063;-70
2021/04/01 17:58:16;;;;;;;9.88;2.53;;;8.40;99.90;;;;;;3610116;39;20172;-71
2021/04/01 18:00:45;;;;;;;15.48;3.58;;;8.10;99.90;;;;;;3611066;39;20388;-70
2021/04/01 18:24:32;;;;;;;11.75;2.72;;;7.60;99.90;;;;;;3609452;39;20146;-70
2021/04/01 18:29:42;;;;;;;9.93;2.53;;;7.30;99.90;;;;;;3609663;39;20071;-71
2021/04/01 18:32:10;;;;;;;13.95;3.15;;;7.30;99.90;;;;;;3610394;39;20078;-70
2021/04/01 18:34:52;;;;;;;13.27;3.45;;;7.40;99.90;;;;;;3610741;39;20106;-70
2021/04/01 18:37:28;;;;;;;12.40;2.90;;;7.40;99.90;;;;;;3607022;39;20075;-70
2021/04/01 18:40:15;;;;;;;12.65;2.72;;;7.40;99.90;;;;;;3608847;39;20326;-71
2021/04/01 18:42:47;;;;;;;13.25;2.72;;;7.30;99.90;;;;;;3609198;39;20068;-70
2021/04/01 18:45:23;;;;;;;8.43;2.60;;;7.30;99.90;;;;;;3607011;39;20059;-70
2021/04/01 18:48:02;;;;;;;10.85;2.88;;;7.10;99.90;;;;;;3607368;39;20631;-71
2021/04/01 18:50:30;;;;;;;19.20;3.60;;;6.90;99.90;;;;;;3607617;39;20405;-71
2021/04/01 18:52:56;;;;;;;15.68;2.45;;;7.00;99.90;;;;;;3606434;39;20081;-72
2021/04/01 18:55:47;;;;;;;18.90;2.53;;;6.70;99.90;;;;;;3609839;39;20087;-71
2021/04/01 18:58:17;;;;;;;10.07;2.53;;;6.80;99.90;;;;;;3605099;39;20142;-71
2021/04/01 19:00:44;;;;;;;15.98;2.75;;;6.70;99.90;;;;;;3609956;39;20067;-72
2021/04/01 19:03:10;;;;;;;12.90;2.70;;;6.70;99.90;;;;;;3609760;39;20083;-71
2021/04/01 19:05:40;;;;;;;15.35;3.25;;;6.70;99.90;;;;;;3610249;39;20265;-71
2021/04/01 19:14:49;;;;;;;8.55;2.15;;;6.50;99.90;;;;;;3608801;39;20077;-71
2021/04/01 19:24:43;;;;;;;16.48;3.47;;;6.30;99.90;;;;;;3602391;39;20099;-70
2021/04/01 19:27:10;;;;;;;6.45;2.25;;;6.30;99.90;;;;;;3609476;39;20324;-71
2021/04/01 19:29:36;;;;;;;12.07;2.83;;;6.30;99.90;;;;;;3608207;39;20203;-71
2021/04/01 19:32:03;;;;;;;8.18;2.00;;;6.30;99.90;;;;;;3601109;39;20088;-70
2021/04/01 19:34:29;;;;;;;11.02;2.53;;;6.30;99.90;;;;;;3604391;39;20188;-70
2021/04/01 19:36:55;;;;;;;18.25;2.80;;;6.20;99.90;;;;;;3608821;39;20083;-69
2021/04/01 19:39:22;;;;;;;12.07;2.30;;;6.30;99.90;;;;;;3611960;39;20351;-71
2021/04/01 19:41:52;;;;;;;7.78;1.75;;;6.30;99.90;;;;;;3610715;39;20076;-71
2021/04/01 19:44:20;;;;;;;15.68;2.97;;;6.30;99.90;;;;;;3609679;39;20055;-71
2021/04/01 19:46:48;;;;;;;11.13;2.70;;;6.40;99.90;;;;;;3612317;39;20171;-71
2021/04/01 19:49:25;;;;;;;13.38;3.50;;;6.20;99.90;;;;;;3611593;39;20207;-70
2021/04/01 19:51:52;;;;;;;14.18;2.45;;;6.20;99.90;;;;;;3608071;39;20184;-70
2021/04/01 19:54:18;;;;;;;11.20;2.20;;;6.20;99.90;;;;;;3609768;39;20098;-70
2021/04/01 19:56:47;;;;;;;12.20;2.10;;;6.20;99.90;;;;;;3611100;39;20072;-69
2021/04/01 19:59:13;;;;;;;16.58;2.45;;;6.20;99.90;;;;;;3619689;39;20412;-70
2021/04/01 20:01:39;;;;;;;11.73;2.08;;;6.10;99.90;;;;;;3610831;39;20480;-71
2021/04/01 20:04:05;;;;;;;7.65;2.10;;;6.10;99.90;;;;;;3604124;39;20408;-71
2021/04/01 20:06:32;;;;;;;8.30;2.13;;;6.10;99.90;;;;;;3604949;39;20176;-70
2021/04/01 20:08:58;;;;;;;12.70;2.83;;;6.00;99.90;;;;;;3608234;39;20159;-70
2021/04/01 20:11:26;;;;;;;8.05;2.33;;;6.10;99.90;;;;;;3602131;39;20079;-70
2021/04/01 20:13:53;;;;;;;11.65;2.70;;;6.10;99.90;;;;;;3609633;39;20079;-70
2021/04/01 20:16:20;;;;;;;12.30;2.50;;;6.00;99.90;;;;;;3611776;39;20079;-71
2021/04/01 20:18:46;;;;;;;12.23;3.05;;;6.10;99.90;;;;;;3610536;39;20079;-70
2021/04/01 20:21:13;;;;;;;14.88;2.25;;;6.00;99.90;;;;;;3603942;39;20067;-70
2021/04/01 20:23:39;;;;;;;11.32;2.80;;;6.00;99.90;;;;;;3603861;39;20075;-70
2021/04/01 20:26:05;;;;;;;11.27;2.13;;;5.90;99.90;;;;;;3609281;39;20178;-70
2021/04/01 20:28:32;;;;;;;7.78;2.20;;;6.00;99.90;;;;;;3614357;39;20083;-70
2021/04/01 20:30:57;;;;;;;13.73;2.50;;;6.00;99.90;;;;;;3610895;39;20179;-70
2021/04/01 20:33:24;;;;;;;12.20;2.50;;;6.00;99.90;;;;;;3611061;39;20063;-70
2021/04/01 20:35:53;;;;;;;13.30;2.15;;;6.00;99.90;;;;;;3611886;39;20172;-70
2021/04/01 20:38:19;;;;;;;7.93;2.03;;;6.00;99.90;;;;;;3610750;39;20075;-70
2021/04/01 20:40:45;;;;;;;9.38;2.38;;;5.90;99.90;;;;;;3611978;39;20079;-70
2021/04/01 20:43:11;;;;;;;14.65;2.60;;;5.90;99.90;;;;;;3611173;39;20159;-70
2021/04/01 20:45:38;;;;;;;12.80;2.13;;;5.90;99.90;;;;;;3611828;39;20071;-70
2021/04/01 20:48:04;;;;;;;7.63;2.33;;;5.90;99.90;;;;;;3611465;39;20305;-70
2021/04/01 20:50:32;;;;;;;6.70;2.35;;;5.90;99.90;;;;;;3611354;39;20064;-70
2021/04/01 20:53:02;;;;;;;8.50;2.28;;;5.90;99.90;;;;;;3610365;39;20071;-70
2021/04/01 20:55:28;;;;;;;10.80;1.90;;;5.80;99.90;;;;;;3611058;39;20067;-70
2021/04/01 20:57:55;;;;;;;10.43;2.20;;;6.10;99.90;;;;;;3611562;39;20099;-71
2021/04/01 21:00:26;;;;;;;21.50;3.72;;;6.00;99.90;;;;;;3611039;39;20068;-68